sensor_id;sensor_type;location;lat;lon;timestamp;P1;durP1;ratioP1;P2;durP2;ratioP2
4732;SDS011;2380;53.668;10.008;2022-07-22T00:02:07;28.20;;;19.70;;
4732;SDS011;2380;53.668;10.008;2022-07-22T00:04:36;40.70;;;23.77;;
4732;SDS011;2380;53.668;10.008;2022-07-22T00:07:08;32.83;;;20.83;;
4732;SDS011;2380;53.668;10.008;2022-07-22T00:09:39;31.87;;;20.07;;
4732;SDS011;2380;53.668;10.008;2022-07-22T00:12:09;29.00;;;19.30;;
4732;SDS011;2380;53.668;10.008;2022-07-22T00:14:38;41.67;;;22.77;;
4732;SDS011;2380;53.668;10.008;2022-07-22T00:17:08;35.77;;;21.67;;
4732;SDS011;2380;53.668;10.008;2022-07-22T00:19:37;39.40;;;22.80;;
4732;SDS011;2380;53.668;10.008;2022-07-22T00:22:10;34.23;;;20.07;;
4732;SDS011;2380;53.668;10.008;2022-07-22T00:24:39;36.33;;;20.97;;
4732;SDS011;2380;53.668;10.008;2022-07-22T00:27:09;44.70;;;22.67;;
4732;SDS011;2380;53.668;10.008;2022-07-22T00:29:38;41.77;;;21.73;;
4732;SDS011;2380;53.668;10.008;2022-07-22T00:32:08;39.50;;;20.60;;
4732;SDS011;2380;53.668;10.008;2022-07-22T00:34:37;38.70;;;20.07;;
4732;SDS011;2380;53.668;10.008;2022-07-22T00:37:09;42.10;;;20.80;;
4732;SDS011;2380;53.668;10.008;2022-07-22T00:39:39;43.50;;;21.17;;
4732;SDS011;2380;53.668;10.008;2022-07-22T00:42:09;26.77;;;13.93;;
4732;SDS011;2380;53.668;10.008;2022-07-22T00:44:39;21.47;;;12.20;;
4732;SDS011;2380;53.668;10.008;2022-07-22T00:47:09;19.73;;;12.10;;
4732;SDS011;2380;53.668;10.008;2022-07-22T00:49:39;31.60;;;14.07;;
4732;SDS011;2380;53.668;10.008;2022-07-22T00:52:11;24.23;;;10.73;;
4732;SDS011;2380;53.668;10.008;2022-07-22T00:54:41;19.93;;;10.43;;
4732;SDS011;2380;53.668;10.008;2022-07-22T00:57:10;12.23;;;8.67;;
4732;SDS011;2380;53.668;10.008;2022-07-22T00:59:40;18.53;;;8.80;;
4732;SDS011;2380;53.668;10.008;2022-07-22T01:02:10;12.70;;;7.70;;
4732;SDS011;2380;53.668;10.008;2022-07-22T01:04:40;10.63;;;5.93;;
4732;SDS011;2380;53.668;10.008;2022-07-22T01:07:12;10.17;;;5.40;;
4732;SDS011;2380;53.668;10.008;2022-07-22T01:09:42;6.77;;;4.03;;
4732;SDS011;2380;53.668;10.008;2022-07-22T01:12:12;6.57;;;3.50;;
4732;SDS011;2380;53.668;10.008;2022-07-22T01:14:42;7.20;;;3.87;;
4732;SDS011;2380;53.668;10.008;2022-07-22T01:17:11;7.90;;;3.60;;
4732;SDS011;2380;53.668;10.008;2022-07-22T01:19:41;9.50;;;4.50;;
4732;SDS011;2380;53.668;10.008;2022-07-22T01:22:13;9.57;;;3.40;;
4732;SDS011;2380;53.668;10.008;2022-07-22T01:24:43;11.20;;;3.90;;
4732;SDS011;2380;53.668;10.008;2022-07-22T01:27:12;6.73;;;3.33;;
4732;SDS011;2380;53.668;10.008;2022-07-22T01:29:42;5.67;;;3.00;;
4732;SDS011;2380;53.668;10.008;2022-07-22T01:32:11;10.20;;;3.33;;
4732;SDS011;2380;53.668;10.008;2022-07-22T01:34:41;7.37;;;3.10;;
4732;SDS011;2380;53.668;10.008;2022-07-22T01:37:13;6.53;;;3.17;;
4732;SDS011;2380;53.668;10.008;2022-07-22T01:39:43;6.30;;;3.20;;
4732;SDS011;2380;53.668;10.008;2022-07-22T01:42:12;9.87;;;4.13;;
4732;SDS011;2380;53.668;10.008;2022-07-22T01:44:42;8.60;;;2.80;;
4732;SDS011;2380;53.668;10.008;2022-07-22T01:47:11;6.57;;;2.80;;
4732;SDS011;2380;53.668;10.008;2022-07-22T01:49:41;5.67;;;2.90;;
4732;SDS011;2380;53.668;10.008;2022-07-22T01:52:10;6.53;;;3.13;;
4732;SDS011;2380;53.668;10.008;2022-07-22T01:54:43;13.23;;;4.50;;
4732;SDS011;2380;53.668;10.008;2022-07-22T01:57:12;9.47;;;4.23;;
4732;SDS011;2380;53.668;10.008;2022-07-22T01:59:42;8.07;;;4.13;;
4732;SDS011;2380;53.668;10.008;2022-07-22T02:02:11;9.67;;;4.20;;
4732;SDS011;2380;53.668;10.008;2022-07-22T02:04:41;22.73;;;5.67;;
4732;SDS011;2380;53.668;10.008;2022-07-22T02:07:10;16.33;;;7.20;;
4732;SDS011;2380;53.668;10.008;2022-07-22T02:09:42;17.40;;;6.13;;
4732;SDS011;2380;53.668;10.008;2022-07-22T02:12:12;17.17;;;6.27;;
4732;SDS011;2380;53.668;10.008;2022-07-22T02:14:42;25.20;;;8.03;;
4732;SDS011;2380;53.668;10.008;2022-07-22T02:17:11;16.33;;;6.33;;
4732;SDS011;2380;53.668;10.008;2022-07-22T02:19:42;21.00;;;7.70;;
4732;SDS011;2380;53.668;10.008;2022-07-22T02:22:11;16.50;;;7.80;;
4732;SDS011;2380;53.668;10.008;2022-07-22T02:24:44;14.30;;;6.63;;
4732;SDS011;2380;53.668;10.008;2022-07-22T02:27:13;20.97;;;7.80;;
4732;SDS011;2380;53.668;10.008;2022-07-22T02:29:43;13.93;;;6.80;;
4732;SDS011;2380;53.668;10.008;2022-07-22T02:32:12;14.83;;;6.50;;
4732;SDS011;2380;53.668;10.008;2022-07-22T02:34:42;9.83;;;5.70;;
4732;SDS011;2380;53.668;10.008;2022-07-22T02:37:12;14.60;;;5.87;;
4732;SDS011;2380;53.668;10.008;2022-07-22T02:39:45;9.03;;;4.77;;
4732;SDS011;2380;53.668;10.008;2022-07-22T02:42:14;12.30;;;5.23;;
4732;SDS011;2380;53.668;10.008;2022-07-22T02:44:44;13.50;;;5.17;;
4732;SDS011;2380;53.668;10.008;2022-07-22T02:47:13;21.33;;;5.70;;
4732;SDS011;2380;53.668;10.008;2022-07-22T02:49:43;11.87;;;4.97;;
4732;SDS011;2380;53.668;10.008;2022-07-22T02:52:12;17.37;;;4.97;;
4732;SDS011;2380;53.668;10.008;2022-07-22T02:54:44;12.87;;;4.73;;
4732;SDS011;2380;53.668;10.008;2022-07-22T02:57:14;11.40;;;4.50;;
4732;SDS011;2380;53.668;10.008;2022-07-22T02:59:44;15.03;;;4.40;;
4732;SDS011;2380;53.668;10.008;2022-07-22T03:02:13;9.47;;;4.47;;
4732;SDS011;2380;53.668;10.008;2022-07-22T03:04:43;10.37;;;4.13;;
4732;SDS011;2380;53.668;10.008;2022-07-22T03:07:12;10.70;;;4.40;;
4732;SDS011;2380;53.668;10.008;2022-07-22T03:09:44;17.00;;;4.23;;
4732;SDS011;2380;53.668;10.008;2022-07-22T03:12:14;10.30;;;3.90;;
4732;SDS011;2380;53.668;10.008;2022-07-22T03:14:43;7.43;;;4.17;;
4732;SDS011;2380;53.668;10.008;2022-07-22T03:17:13;19.47;;;3.50;;
4732;SDS011;2380;53.668;10.008;2022-07-22T03:19:42;18.80;;;6.93;;
4732;SDS011;2380;53.668;10.008;2022-07-22T03:22:12;9.63;;;3.47;;
4732;SDS011;2380;53.668;10.008;2022-07-22T03:24:41;8.70;;;3.33;;
4732;SDS011;2380;53.668;10.008;2022-07-22T03:27:13;9.33;;;3.20;;
4732;SDS011;2380;53.668;10.008;2022-07-22T03:29:43;5.83;;;3.43;;
4732;SDS011;2380;53.668;10.008;2022-07-22T03:32:13;15.87;;;7.40;;
4732;SDS011;2380;53.668;10.008;2022-07-22T03:34:42;17.80;;;8.30;;
4732;SDS011;2380;53.668;10.008;2022-07-22T03:37:12;10.00;;;3.53;;
4732;SDS011;2380;53.668;10.008;2022-07-22T03:39:41;12.30;;;6.03;;
4732;SDS011;2380;53.668;10.008;2022-07-22T03:42:13;8.30;;;3.50;;
4732;SDS011;2380;53.668;10.008;2022-07-22T03:44:43;8.80;;;3.30;;
4732;SDS011;2380;53.668;10.008;2022-07-22T03:47:16;9.83;;;3.53;;
4732;SDS011;2380;53.668;10.008;2022-07-22T03:49:47;10.17;;;3.40;;
4732;SDS011;2380;53.668;10.008;2022-07-22T03:52:16;8.57;;;3.37;;
4732;SDS011;2380;53.668;10.008;2022-07-22T03:54:46;12.53;;;3.10;;
4732;SDS011;2380;53.668;10.008;2022-07-22T03:57:18;11.53;;;4.13;;
4732;SDS011;2380;53.668;10.008;2022-07-22T03:59:47;8.60;;;3.10;;
4732;SDS011;2380;53.668;10.008;2022-07-22T04:02:17;11.23;;;3.27;;
4732;SDS011;2380;53.668;10.008;2022-07-22T04:04:47;10.73;;;3.77;;
4732;SDS011;2380;53.668;10.008;2022-07-22T04:07:16;9.40;;;3.40;;
4732;SDS011;2380;53.668;10.008;2022-07-22T04:09:46;13.40;;;3.10;;
4732;SDS011;2380;53.668;10.008;2022-07-22T04:12:18;6.60;;;2.90;;
4732;SDS011;2380;53.668;10.008;2022-07-22T04:14:48;10.43;;;3.57;;
4732;SDS011;2380;53.668;10.008;2022-07-22T04:17:17;8.30;;;2.60;;
4732;SDS011;2380;53.668;10.008;2022-07-22T04:19:47;14.03;;;3.80;;
4732;SDS011;2380;53.668;10.008;2022-07-22T04:22:16;9.70;;;3.10;;
4732;SDS011;2380;53.668;10.008;2022-07-22T04:24:46;11.37;;;3.30;;
4732;SDS011;2380;53.668;10.008;2022-07-22T04:27:18;13.80;;;4.57;;
4732;SDS011;2380;53.668;10.008;2022-07-22T04:29:48;8.80;;;2.97;;
4732;SDS011;2380;53.668;10.008;2022-07-22T04:32:17;7.70;;;3.50;;
4732;SDS011;2380;53.668;10.008;2022-07-22T04:34:47;10.40;;;3.87;;
4732;SDS011;2380;53.668;10.008;2022-07-22T04:37:16;9.03;;;3.30;;
4732;SDS011;2380;53.668;10.008;2022-07-22T04:39:46;13.60;;;3.50;;
4732;SDS011;2380;53.668;10.008;2022-07-22T04:42:18;8.10;;;3.13;;
4732;SDS011;2380;53.668;10.008;2022-07-22T04:44:48;7.53;;;3.10;;
4732;SDS011;2380;53.668;10.008;2022-07-22T04:47:17;7.57;;;2.83;;
4732;SDS011;2380;53.668;10.008;2022-07-22T04:49:47;11.13;;;3.20;;
4732;SDS011;2380;53.668;10.008;2022-07-22T04:52:16;13.13;;;3.30;;
4732;SDS011;2380;53.668;10.008;2022-07-22T04:54:46;9.93;;;3.30;;
4732;SDS011;2380;53.668;10.008;2022-07-22T04:57:19;12.13;;;3.27;;
4732;SDS011;2380;53.668;10.008;2022-07-22T04:59:48;7.70;;;3.03;;
4732;SDS011;2380;53.668;10.008;2022-07-22T05:02:18;9.27;;;3.27;;
4732;SDS011;2380;53.668;10.008;2022-07-22T05:04:48;14.70;;;3.70;;
4732;SDS011;2380;53.668;10.008;2022-07-22T05:07:25;9.70;;;3.60;;
4732;SDS011;2380;53.668;10.008;2022-07-22T05:09:54;10.43;;;4.50;;
4732;SDS011;2380;53.668;10.008;2022-07-22T05:12:26;14.53;;;4.63;;
4732;SDS011;2380;53.668;10.008;2022-07-22T05:14:56;18.57;;;4.77;;
4732;SDS011;2380;53.668;10.008;2022-07-22T05:17:25;11.73;;;4.10;;
4732;SDS011;2380;53.668;10.008;2022-07-22T05:19:55;17.37;;;4.80;;
4732;SDS011;2380;53.668;10.008;2022-07-22T05:22:25;10.67;;;4.13;;
4732;SDS011;2380;53.668;10.008;2022-07-22T05:25:03;14.87;;;4.50;;
4732;SDS011;2380;53.668;10.008;2022-07-22T05:27:35;17.53;;;5.10;;
4732;SDS011;2380;53.668;10.008;2022-07-22T05:30:05;13.03;;;4.40;;
4732;SDS011;2380;53.668;10.008;2022-07-22T05:32:36;15.10;;;4.63;;
4732;SDS011;2380;53.668;10.008;2022-07-22T05:35:06;9.70;;;4.10;;
4732;SDS011;2380;53.668;10.008;2022-07-22T05:37:36;10.57;;;4.03;;
4732;SDS011;2380;53.668;10.008;2022-07-22T05:40:07;10.23;;;4.60;;
4732;SDS011;2380;53.668;10.008;2022-07-22T05:42:40;20.10;;;6.37;;
4732;SDS011;2380;53.668;10.008;2022-07-22T05:45:09;14.07;;;4.70;;
4732;SDS011;2380;53.668;10.008;2022-07-22T05:47:39;14.13;;;4.00;;
4732;SDS011;2380;53.668;10.008;2022-07-22T05:50:08;20.70;;;5.03;;
4732;SDS011;2380;53.668;10.008;2022-07-22T05:52:38;16.30;;;5.20;;
4732;SDS011;2380;53.668;10.008;2022-07-22T05:55:08;19.57;;;4.93;;
4732;SDS011;2380;53.668;10.008;2022-07-22T05:57:41;20.87;;;5.50;;
4732;SDS011;2380;53.668;10.008;2022-07-22T06:00:11;13.83;;;3.43;;
4732;SDS011;2380;53.668;10.008;2022-07-22T06:02:41;15.73;;;4.80;;
4732;SDS011;2380;53.668;10.008;2022-07-22T06:05:11;13.83;;;5.27;;
4732;SDS011;2380;53.668;10.008;2022-07-22T06:08:00;12.63;;;4.77;;
4732;SDS011;2380;53.668;10.008;2022-07-22T06:10:30;14.03;;;4.90;;
4732;SDS011;2380;53.668;10.008;2022-07-22T06:13:02;10.33;;;4.30;;
4732;SDS011;2380;53.668;10.008;2022-07-22T06:15:32;17.33;;;6.07;;
4732;SDS011;2380;53.668;10.008;2022-07-22T06:18:02;12.97;;;3.57;;
4732;SDS011;2380;53.668;10.008;2022-07-22T06:20:32;13.10;;;3.87;;
4732;SDS011;2380;53.668;10.008;2022-07-22T06:23:02;15.60;;;4.17;;
4732;SDS011;2380;53.668;10.008;2022-07-22T06:25:31;15.40;;;3.87;;
4732;SDS011;2380;53.668;10.008;2022-07-22T06:28:12;14.80;;;4.50;;
4732;SDS011;2380;53.668;10.008;2022-07-22T06:30:41;16.63;;;4.63;;
4732;SDS011;2380;53.668;10.008;2022-07-22T06:33:11;11.30;;;4.10;;
4732;SDS011;2380;53.668;10.008;2022-07-22T06:35:41;18.53;;;4.37;;
4732;SDS011;2380;53.668;10.008;2022-07-22T06:38:10;18.90;;;4.30;;
4732;SDS011;2380;53.668;10.008;2022-07-22T06:41:00;20.60;;;6.13;;
4732;SDS011;2380;53.668;10.008;2022-07-22T06:43:32;17.50;;;5.10;;
4732;SDS011;2380;53.668;10.008;2022-07-22T06:46:02;15.67;;;3.70;;
4732;SDS011;2380;53.668;10.008;2022-07-22T06:48:32;16.23;;;5.50;;
4732;SDS011;2380;53.668;10.008;2022-07-22T06:51:02;14.10;;;4.63;;
4732;SDS011;2380;53.668;10.008;2022-07-22T06:53:32;11.97;;;4.13;;
4732;SDS011;2380;53.668;10.008;2022-07-22T06:56:05;12.63;;;5.27;;
4732;SDS011;2380;53.668;10.008;2022-07-22T06:58:44;17.40;;;4.60;;
4732;SDS011;2380;53.668;10.008;2022-07-22T07:01:13;10.40;;;4.40;;
4732;SDS011;2380;53.668;10.008;2022-07-22T07:03:43;14.27;;;4.40;;
4732;SDS011;2380;53.668;10.008;2022-07-22T07:06:12;13.83;;;4.17;;
4732;SDS011;2380;53.668;10.008;2022-07-22T07:08:42;14.60;;;4.73;;
4732;SDS011;2380;53.668;10.008;2022-07-22T07:11:12;9.07;;;3.63;;
4732;SDS011;2380;53.668;10.008;2022-07-22T07:13:44;12.30;;;3.73;;
4732;SDS011;2380;53.668;10.008;2022-07-22T07:16:13;15.00;;;3.67;;
4732;SDS011;2380;53.668;10.008;2022-07-22T07:18:43;11.30;;;3.40;;
4732;SDS011;2380;53.668;10.008;2022-07-22T07:21:13;12.60;;;3.57;;
4732;SDS011;2380;53.668;10.008;2022-07-22T07:23:42;13.97;;;3.90;;
4732;SDS011;2380;53.668;10.008;2022-07-22T07:26:12;12.73;;;3.30;;
4732;SDS011;2380;53.668;10.008;2022-07-22T07:28:44;15.73;;;4.27;;
4732;SDS011;2380;53.668;10.008;2022-07-22T07:31:14;12.40;;;3.60;;
4732;SDS011;2380;53.668;10.008;2022-07-22T07:33:44;12.63;;;3.20;;
4732;SDS011;2380;53.668;10.008;2022-07-22T07:36:14;12.80;;;3.77;;
4732;SDS011;2380;53.668;10.008;2022-07-22T07:38:43;14.50;;;4.47;;
4732;SDS011;2380;53.668;10.008;2022-07-22T07:41:13;10.33;;;3.17;;
4732;SDS011;2380;53.668;10.008;2022-07-22T07:43:45;13.07;;;4.30;;
4732;SDS011;2380;53.668;10.008;2022-07-22T07:46:15;13.60;;;3.80;;
4732;SDS011;2380;53.668;10.008;2022-07-22T07:48:44;13.17;;;3.57;;
4732;SDS011;2380;53.668;10.008;2022-07-22T07:51:14;12.10;;;3.23;;
4732;SDS011;2380;53.668;10.008;2022-07-22T07:53:44;12.33;;;3.20;;
4732;SDS011;2380;53.668;10.008;2022-07-22T07:56:13;13.43;;;3.77;;
4732;SDS011;2380;53.668;10.008;2022-07-22T07:58:46;17.13;;;3.80;;
4732;SDS011;2380;53.668;10.008;2022-07-22T08:01:35;14.17;;;3.93;;
4732;SDS011;2380;53.668;10.008;2022-07-22T08:04:24;20.80;;;7.40;;
4732;SDS011;2380;53.668;10.008;2022-07-22T08:07:02;9.97;;;2.93;;
4732;SDS011;2380;53.668;10.008;2022-07-22T08:09:32;12.30;;;3.97;;
4732;SDS011;2380;53.668;10.008;2022-07-22T08:12:02;10.50;;;3.90;;
4732;SDS011;2380;53.668;10.008;2022-07-22T08:14:35;13.80;;;3.50;;
4732;SDS011;2380;53.668;10.008;2022-07-22T08:17:04;14.73;;;4.20;;
4732;SDS011;2380;53.668;10.008;2022-07-22T08:19:34;12.80;;;3.13;;
4732;SDS011;2380;53.668;10.008;2022-07-22T08:22:04;9.10;;;2.83;;
4732;SDS011;2380;53.668;10.008;2022-07-22T08:24:35;11.50;;;2.80;;
4732;SDS011;2380;53.668;10.008;2022-07-22T08:27:04;9.33;;;2.40;;
4732;SDS011;2380;53.668;10.008;2022-07-22T08:29:36;14.83;;;2.57;;
4732;SDS011;2380;53.668;10.008;2022-07-22T08:32:06;10.83;;;3.17;;
4732;SDS011;2380;53.668;10.008;2022-07-22T08:34:36;10.40;;;3.27;;
4732;SDS011;2380;53.668;10.008;2022-07-22T08:37:05;14.70;;;2.73;;
4732;SDS011;2380;53.668;10.008;2022-07-22T08:39:35;9.60;;;2.50;;
4732;SDS011;2380;53.668;10.008;2022-07-22T08:42:05;10.23;;;2.77;;
4732;SDS011;2380;53.668;10.008;2022-07-22T08:44:37;10.47;;;2.47;;
4732;SDS011;2380;53.668;10.008;2022-07-22T08:47:07;11.83;;;2.83;;
4732;SDS011;2380;53.668;10.008;2022-07-22T08:49:56;10.40;;;2.80;;
4732;SDS011;2380;53.668;10.008;2022-07-22T08:52:26;10.80;;;2.43;;
4732;SDS011;2380;53.668;10.008;2022-07-22T08:54:56;9.40;;;2.00;;
4732;SDS011;2380;53.668;10.008;2022-07-22T08:57:25;12.50;;;2.40;;
4732;SDS011;2380;53.668;10.008;2022-07-22T08:59:58;12.20;;;2.50;;
4732;SDS011;2380;53.668;10.008;2022-07-22T09:02:35;15.00;;;3.80;;
4732;SDS011;2380;53.668;10.008;2022-07-22T09:05:07;8.33;;;2.53;;
4732;SDS011;2380;53.668;10.008;2022-07-22T09:07:57;10.60;;;2.70;;
4732;SDS011;2380;53.668;10.008;2022-07-22T09:10:30;9.70;;;2.80;;
4732;SDS011;2380;53.668;10.008;2022-07-22T09:13:02;13.20;;;2.33;;
4732;SDS011;2380;53.668;10.008;2022-07-22T09:15:36;17.03;;;3.47;;
4732;SDS011;2380;53.668;10.008;2022-07-22T09:18:07;11.83;;;2.17;;
4732;SDS011;2380;53.668;10.008;2022-07-22T09:20:38;6.50;;;1.93;;
4732;SDS011;2380;53.668;10.008;2022-07-22T09:23:11;15.23;;;3.50;;
4732;SDS011;2380;53.668;10.008;2022-07-22T09:25:41;21.77;;;4.00;;
4732;SDS011;2380;53.668;10.008;2022-07-22T09:28:15;8.40;;;2.40;;
4732;SDS011;2380;53.668;10.008;2022-07-22T09:30:52;12.10;;;2.60;;
4732;SDS011;2380;53.668;10.008;2022-07-22T09:33:24;13.20;;;2.43;;
4732;SDS011;2380;53.668;10.008;2022-07-22T09:36:01;9.63;;;2.37;;
4732;SDS011;2380;53.668;10.008;2022-07-22T09:38:32;20.40;;;4.27;;
4732;SDS011;2380;53.668;10.008;2022-07-22T09:41:01;12.97;;;2.83;;
4732;SDS011;2380;53.668;10.008;2022-07-22T09:43:35;7.53;;;2.00;;
4732;SDS011;2380;53.668;10.008;2022-07-22T09:46:07;11.73;;;2.73;;
4732;SDS011;2380;53.668;10.008;2022-07-22T09:48:37;15.13;;;3.17;;
4732;SDS011;2380;53.668;10.008;2022-07-22T09:51:09;9.20;;;1.90;;
4732;SDS011;2380;53.668;10.008;2022-07-22T09:53:38;11.57;;;2.37;;
4732;SDS011;2380;53.668;10.008;2022-07-22T09:56:08;9.53;;;2.23;;
4732;SDS011;2380;53.668;10.008;2022-07-22T09:58:38;10.73;;;2.83;;
4732;SDS011;2380;53.668;10.008;2022-07-22T10:01:15;6.17;;;2.30;;
4732;SDS011;2380;53.668;10.008;2022-07-22T10:03:46;13.10;;;2.50;;
4732;SDS011;2380;53.668;10.008;2022-07-22T10:06:17;15.03;;;4.20;;
4732;SDS011;2380;53.668;10.008;2022-07-22T10:08:47;7.83;;;2.40;;
4732;SDS011;2380;53.668;10.008;2022-07-22T10:11:17;13.10;;;4.47;;
4732;SDS011;2380;53.668;10.008;2022-07-22T10:13:47;18.47;;;5.57;;
4732;SDS011;2380;53.668;10.008;2022-07-22T10:16:19;17.00;;;4.50;;
4732;SDS011;2380;53.668;10.008;2022-07-22T10:18:49;8.20;;;2.37;;
4732;SDS011;2380;53.668;10.008;2022-07-22T10:21:19;12.80;;;4.00;;
4732;SDS011;2380;53.668;10.008;2022-07-22T10:24:07;8.03;;;2.70;;
4732;SDS011;2380;53.668;10.008;2022-07-22T10:26:47;11.50;;;3.13;;
4732;SDS011;2380;53.668;10.008;2022-07-22T10:29:25;10.10;;;2.50;;
4732;SDS011;2380;53.668;10.008;2022-07-22T10:37:54;8.57;;;2.80;;
4732;SDS011;2380;53.668;10.008;2022-07-22T10:40:25;6.03;;;1.80;;
4732;SDS011;2380;53.668;10.008;2022-07-22T10:43:05;9.10;;;2.60;;
4732;SDS011;2380;53.668;10.008;2022-07-22T10:45:37;19.90;;;5.43;;
4732;SDS011;2380;53.668;10.008;2022-07-22T10:48:12;9.00;;;2.07;;
4732;SDS011;2380;53.668;10.008;2022-07-22T10:50:45;10.03;;;1.93;;
4732;SDS011;2380;53.668;10.008;2022-07-22T10:53:17;4.80;;;2.10;;
4732;SDS011;2380;53.668;10.008;2022-07-22T10:56:02;9.53;;;2.13;;
4732;SDS011;2380;53.668;10.008;2022-07-22T10:58:40;11.67;;;2.40;;
4732;SDS011;2380;53.668;10.008;2022-07-22T11:01:13;6.33;;;1.73;;
4732;SDS011;2380;53.668;10.008;2022-07-22T11:03:47;6.73;;;1.80;;
4732;SDS011;2380;53.668;10.008;2022-07-22T11:06:22;7.40;;;2.10;;
4732;SDS011;2380;53.668;10.008;2022-07-22T11:08:54;14.40;;;3.23;;
4732;SDS011;2380;53.668;10.008;2022-07-22T11:11:35;9.37;;;2.00;;
4732;SDS011;2380;53.668;10.008;2022-07-22T11:14:15;9.40;;;1.80;;
4732;SDS011;2380;53.668;10.008;2022-07-22T11:16:46;10.10;;;2.60;;
4732;SDS011;2380;53.668;10.008;2022-07-22T11:19:22;9.70;;;2.63;;
4732;SDS011;2380;53.668;10.008;2022-07-22T11:21:52;9.70;;;2.83;;
4732;SDS011;2380;53.668;10.008;2022-07-22T11:24:24;13.30;;;4.37;;
4732;SDS011;2380;53.668;10.008;2022-07-22T11:26:54;9.57;;;3.37;;
4732;SDS011;2380;53.668;10.008;2022-07-22T11:29:31;11.70;;;3.00;;
4732;SDS011;2380;53.668;10.008;2022-07-22T11:32:03;6.57;;;2.80;;
4732;SDS011;2380;53.668;10.008;2022-07-22T11:34:38;5.63;;;1.90;;
4732;SDS011;2380;53.668;10.008;2022-07-22T11:37:11;7.47;;;2.10;;
4732;SDS011;2380;53.668;10.008;2022-07-22T11:39:41;20.00;;;4.97;;
4732;SDS011;2380;53.668;10.008;2022-07-22T11:42:11;7.00;;;2.03;;
4732;SDS011;2380;53.668;10.008;2022-07-22T11:44:41;11.70;;;2.43;;
4732;SDS011;2380;53.668;10.008;2022-07-22T11:47:17;17.17;;;5.33;;
4732;SDS011;2380;53.668;10.008;2022-07-22T11:49:50;11.93;;;2.17;;
4732;SDS011;2380;53.668;10.008;2022-07-22T11:52:19;6.83;;;2.17;;
4732;SDS011;2380;53.668;10.008;2022-07-22T11:54:49;7.23;;;1.50;;
4732;SDS011;2380;53.668;10.008;2022-07-22T11:57:19;10.50;;;2.20;;
4732;SDS011;2380;53.668;10.008;2022-07-22T11:59:48;5.20;;;1.67;;
4732;SDS011;2380;53.668;10.008;2022-07-22T12:02:18;5.03;;;1.67;;
4732;SDS011;2380;53.668;10.008;2022-07-22T12:04:50;8.03;;;1.73;;
4732;SDS011;2380;53.668;10.008;2022-07-22T12:07:29;4.27;;;1.77;;
4732;SDS011;2380;53.668;10.008;2022-07-22T12:09:59;6.63;;;2.33;;
4732;SDS011;2380;53.668;10.008;2022-07-22T12:12:38;27.53;;;13.80;;
4732;SDS011;2380;53.668;10.008;2022-07-22T12:15:08;7.10;;;2.10;;
4732;SDS011;2380;53.668;10.008;2022-07-22T12:18:13;11.10;;;2.93;;
4732;SDS011;2380;53.668;10.008;2022-07-22T12:20:46;8.73;;;2.50;;
4732;SDS011;2380;53.668;10.008;2022-07-22T12:23:20;6.80;;;1.50;;
4732;SDS011;2380;53.668;10.008;2022-07-22T12:25:53;7.27;;;2.53;;
4732;SDS011;2380;53.668;10.008;2022-07-22T12:28:25;8.50;;;2.90;;
4732;SDS011;2380;53.668;10.008;2022-07-22T12:30:55;6.43;;;1.87;;
4732;SDS011;2380;53.668;10.008;2022-07-22T12:33:25;4.13;;;1.40;;
4732;SDS011;2380;53.668;10.008;2022-07-22T12:36:01;6.00;;;1.70;;
4732;SDS011;2380;53.668;10.008;2022-07-22T12:38:32;4.70;;;1.53;;
4732;SDS011;2380;53.668;10.008;2022-07-22T12:43:50;7.97;;;1.90;;
4732;SDS011;2380;53.668;10.008;2022-07-22T12:46:21;5.50;;;1.93;;
4732;SDS011;2380;53.668;10.008;2022-07-22T12:48:51;4.50;;;1.80;;
4732;SDS011;2380;53.668;10.008;2022-07-22T12:51:29;7.83;;;1.77;;
4732;SDS011;2380;53.668;10.008;2022-07-22T12:53:58;9.10;;;2.23;;
4732;SDS011;2380;53.668;10.008;2022-07-22T12:56:28;6.17;;;1.57;;
4732;SDS011;2380;53.668;10.008;2022-07-22T12:59:02;7.30;;;1.60;;
4732;SDS011;2380;53.668;10.008;2022-07-22T13:01:31;4.73;;;1.60;;
4732;SDS011;2380;53.668;10.008;2022-07-22T13:04:01;6.70;;;2.10;;
4732;SDS011;2380;53.668;10.008;2022-07-22T13:06:33;7.67;;;1.80;;
4732;SDS011;2380;53.668;10.008;2022-07-22T13:09:03;4.73;;;1.43;;
4732;SDS011;2380;53.668;10.008;2022-07-22T13:11:43;7.20;;;1.70;;
4732;SDS011;2380;53.668;10.008;2022-07-22T13:14:13;6.47;;;1.87;;
4732;SDS011;2380;53.668;10.008;2022-07-22T13:16:43;17.50;;;9.40;;
4732;SDS011;2380;53.668;10.008;2022-07-22T13:19:13;9.60;;;2.10;;
4732;SDS011;2380;53.668;10.008;2022-07-22T13:21:45;12.40;;;3.80;;
4732;SDS011;2380;53.668;10.008;2022-07-22T13:24:14;9.53;;;2.10;;
4732;SDS011;2380;53.668;10.008;2022-07-22T13:26:44;12.57;;;3.43;;
4732;SDS011;2380;53.668;10.008;2022-07-22T13:29:14;7.40;;;2.07;;
4732;SDS011;2380;53.668;10.008;2022-07-22T13:31:45;8.10;;;2.33;;
4732;SDS011;2380;53.668;10.008;2022-07-22T13:34:35;6.93;;;1.73;;
4732;SDS011;2380;53.668;10.008;2022-07-22T13:37:08;11.10;;;2.60;;
4732;SDS011;2380;53.668;10.008;2022-07-22T13:39:37;6.00;;;1.80;;
4732;SDS011;2380;53.668;10.008;2022-07-22T13:42:08;37.87;;;10.80;;
4732;SDS011;2380;53.668;10.008;2022-07-22T13:44:38;4.57;;;1.50;;
4732;SDS011;2380;53.668;10.008;2022-07-22T13:47:07;8.73;;;1.70;;
4732;SDS011;2380;53.668;10.008;2022-07-22T13:49:38;12.93;;;5.57;;
4732;SDS011;2380;53.668;10.008;2022-07-22T13:52:10;7.50;;;3.97;;
4732;SDS011;2380;53.668;10.008;2022-07-22T13:54:39;8.83;;;2.67;;
4732;SDS011;2380;53.668;10.008;2022-07-22T13:57:15;6.17;;;1.70;;
4732;SDS011;2380;53.668;10.008;2022-07-22T13:59:44;7.30;;;2.73;;
4732;SDS011;2380;53.668;10.008;2022-07-22T14:02:14;7.40;;;1.83;;
4732;SDS011;2380;53.668;10.008;2022-07-22T14:04:44;9.00;;;1.93;;
4732;SDS011;2380;53.668;10.008;2022-07-22T14:07:16;7.20;;;2.13;;
4732;SDS011;2380;53.668;10.008;2022-07-22T14:09:46;8.77;;;2.20;;
4732;SDS011;2380;53.668;10.008;2022-07-22T14:12:16;11.23;;;2.20;;
4732;SDS011;2380;53.668;10.008;2022-07-22T14:14:45;7.63;;;2.33;;
4732;SDS011;2380;53.668;10.008;2022-07-22T14:17:15;9.53;;;3.20;;
4732;SDS011;2380;53.668;10.008;2022-07-22T14:19:50;9.73;;;2.90;;
4732;SDS011;2380;53.668;10.008;2022-07-22T14:22:29;6.50;;;1.80;;
4732;SDS011;2380;53.668;10.008;2022-07-22T14:24:58;8.10;;;1.50;;
4732;SDS011;2380;53.668;10.008;2022-07-22T14:27:28;7.03;;;1.90;;
4732;SDS011;2380;53.668;10.008;2022-07-22T14:29:58;6.17;;;2.50;;
4732;SDS011;2380;53.668;10.008;2022-07-22T14:32:27;9.57;;;2.07;;
4732;SDS011;2380;53.668;10.008;2022-07-22T14:34:57;16.00;;;3.00;;
4732;SDS011;2380;53.668;10.008;2022-07-22T14:37:30;10.73;;;3.27;;
4732;SDS011;2380;53.668;10.008;2022-07-22T14:40:00;7.37;;;2.00;;
4732;SDS011;2380;53.668;10.008;2022-07-22T14:42:30;14.60;;;3.87;;
4732;SDS011;2380;53.668;10.008;2022-07-22T14:44:59;11.53;;;1.80;;
4732;SDS011;2380;53.668;10.008;2022-07-22T14:47:34;6.90;;;1.90;;
4732;SDS011;2380;53.668;10.008;2022-07-22T14:50:05;8.07;;;1.77;;
4732;SDS011;2380;53.668;10.008;2022-07-22T14:52:38;7.07;;;2.07;;
4732;SDS011;2380;53.668;10.008;2022-07-22T14:55:07;6.70;;;1.70;;
4732;SDS011;2380;53.668;10.008;2022-07-22T14:57:37;8.13;;;2.73;;
4732;SDS011;2380;53.668;10.008;2022-07-22T15:00:07;10.57;;;5.00;;
4732;SDS011;2380;53.668;10.008;2022-07-22T15:02:37;7.90;;;2.30;;
4732;SDS011;2380;53.668;10.008;2022-07-22T15:05:07;10.37;;;2.13;;
4732;SDS011;2380;53.668;10.008;2022-07-22T15:07:40;5.43;;;1.77;;
4732;SDS011;2380;53.668;10.008;2022-07-22T15:10:10;8.47;;;2.20;;
4732;SDS011;2380;53.668;10.008;2022-07-22T15:12:39;5.40;;;2.03;;
4732;SDS011;2380;53.668;10.008;2022-07-22T15:15:14;6.73;;;2.03;;
4732;SDS011;2380;53.668;10.008;2022-07-22T15:17:44;6.10;;;1.80;;
4732;SDS011;2380;53.668;10.008;2022-07-22T15:20:13;7.90;;;2.50;;
4732;SDS011;2380;53.668;10.008;2022-07-22T15:22:46;3.47;;;1.23;;
4732;SDS011;2380;53.668;10.008;2022-07-22T15:25:15;4.30;;;1.20;;
4732;SDS011;2380;53.668;10.008;2022-07-22T15:27:45;5.20;;;2.40;;